createdAt,value
2019-06-26T00:01:19.359Z,69.88
2019-06-26T00:03:48.497Z,70.63
2019-06-26T00:06:17.471Z,71.17
2019-06-26T00:08:46.508Z,70.80
2019-06-26T00:11:15.570Z,70.44
2019-06-26T00:13:44.532Z,70.34
2019-06-26T00:16:13.329Z,70.90
2019-06-26T00:18:42.481Z,70.52
2019-06-26T00:21:11.446Z,70.85
2019-06-26T00:23:40.530Z,70.42
2019-06-26T00:26:09.375Z,70.06
2019-06-26T00:28:38.449Z,70.89
2019-06-26T00:31:07.378Z,71.31
2019-06-26T00:33:36.339Z,71.58
2019-06-26T00:36:05.471Z,71.60
2019-06-26T00:38:34.568Z,71.12
2019-06-26T00:41:03.463Z,71.18
2019-06-26T00:43:41.854Z,71.41
2019-06-26T00:46:03.144Z,71.49
2019-06-26T00:48:31.979Z,71.58
2019-06-26T00:51:00.931Z,71.54
2019-06-26T00:53:29.848Z,70.99
2019-06-26T00:55:58.914Z,71.12
2019-06-26T00:58:27.887Z,71.56
2019-06-26T01:00:56.834Z,71.51
2019-06-26T01:03:25.827Z,71.65
2019-06-26T01:05:54.784Z,71.81
2019-06-26T01:08:23.723Z,71.73
2019-06-26T01:10:52.705Z,72.10
2019-06-26T01:13:21.718Z,71.16
2019-06-26T01:15:50.784Z,71.21
2019-06-26T01:18:19.843Z,70.96
2019-06-26T01:20:48.933Z,71.08
2019-06-26T01:23:17.943Z,71.80
2019-06-26T01:25:46.982Z,71.52
2019-06-26T01:28:15.917Z,70.89
2019-06-26T01:30:44.895Z,71.29
2019-06-26T01:33:15.796Z,70.90
2019-06-26T01:35:44.465Z,70.81
2019-06-26T01:38:13.351Z,70.89
2019-06-26T01:40:42.190Z,71.56
2019-06-26T01:43:11.221Z,72.11
2019-06-26T01:45:40.135Z,72.80
2019-06-26T01:48:09.117Z,72.42
2019-06-26T01:50:37.938Z,72.78
2019-06-26T01:53:06.822Z,73.31
2019-06-26T01:55:35.722Z,73.92
2019-06-26T01:58:04.636Z,73.98
2019-06-26T02:00:33.748Z,74.31
2019-06-26T02:03:02.598Z,74.58
2019-06-26T02:05:31.487Z,74.50
2019-06-26T02:08:00.410Z,74.62
2019-06-26T02:10:29.311Z,74.72
2019-06-26T02:12:58.126Z,74.78
2019-06-26T02:15:26.991Z,74.37
2019-06-26T02:17:56.239Z,74.57
2019-06-26T02:20:25.184Z,72.70
2019-06-26T02:22:54.177Z,72.83
2019-06-26T02:25:23.462Z,72.31
2019-06-26T02:27:52.479Z,72.94
2019-06-26T02:30:21.847Z,72.65
2019-06-26T02:32:50.853Z,72.51
2019-06-26T02:35:19.961Z,72.54
2019-06-26T02:37:48.839Z,72.49
2019-06-26T02:40:18.244Z,72.60
2019-06-26T02:42:47.204Z,73.19
2019-06-26T02:45:16.364Z,72.83
2019-06-26T02:47:45.219Z,73.25
2019-06-26T02:50:14.229Z,73.37
2019-06-26T02:52:43.032Z,72.54
2019-06-26T02:55:12.218Z,72.11
2019-06-26T02:57:41.246Z,72.65
2019-06-26T03:00:10.999Z,72.70
2019-06-26T03:02:39.997Z,73.38
2019-06-26T03:05:08.969Z,73.10
2019-06-26T03:07:37.980Z,73.34
2019-06-26T03:10:07.143Z,74.08
2019-06-26T03:12:36.128Z,74.73
2019-06-26T03:15:09.168Z,75.53
2019-06-26T03:17:36.318Z,75.17
2019-06-26T03:20:05.562Z,75.73
2019-06-26T03:22:34.557Z,75.90
2019-06-26T03:25:03.571Z,75.46
2019-06-26T03:27:32.468Z,75.29
2019-06-26T03:30:01.371Z,76.11
2019-06-26T03:32:30.292Z,75.51
2019-06-26T03:34:59.341Z,76.36
2019-06-26T03:37:28.123Z,76.58
2019-06-26T03:39:57.067Z,76.56
2019-06-26T03:42:26.015Z,76.63
2019-06-26T03:44:54.943Z,76.41
2019-06-26T03:47:23.866Z,75.39
2019-06-26T03:49:52.741Z,75.53
2019-06-26T03:52:21.742Z,75.78
2019-06-26T03:54:50.756Z,76.03
2019-06-26T03:57:19.687Z,76.13
2019-06-26T03:59:48.599Z,75.91
2019-06-26T04:02:17.411Z,75.43
2019-06-26T04:04:46.352Z,75.58
2019-06-26T04:07:15.210Z,75.12
2019-06-26T04:09:44.027Z,74.96
2019-06-26T04:12:13.074Z,74.66
2019-06-26T04:14:42.154Z,74.31
2019-06-26T04:17:11.150Z,73.93
2019-06-26T04:19:40.081Z,73.25
2019-06-26T04:22:09.010Z,72.81
2019-06-26T04:24:37.850Z,72.23
2019-06-26T04:27:06.833Z,71.77
2019-06-26T04:29:35.825Z,71.22
2019-06-26T04:32:04.798Z,71.22
2019-06-26T04:34:33.558Z,70.46
2019-06-26T04:37:02.540Z,70.10
2019-06-26T04:39:31.565Z,69.20
2019-06-26T04:42:00.678Z,68.42
2019-06-26T04:44:29.671Z,67.82
2019-06-26T04:46:58.670Z,66.98
2019-06-26T04:49:27.483Z,66.60
2019-06-26T04:51:56.379Z,65.80
2019-06-26T04:54:25.419Z,65.24
2019-06-26T04:56:54.414Z,64.64
2019-06-26T04:59:23.354Z,64.47
2019-06-26T05:01:52.418Z,65.19
2019-06-26T05:04:21.290Z,64.89
2019-06-26T05:06:50.212Z,64.96
2019-06-26T05:09:19.268Z,63.52
2019-06-26T05:11:48.271Z,63.02
2019-06-26T05:14:17.274Z,63.89
2019-06-26T05:16:46.437Z,64.05
2019-06-26T05:19:15.439Z,63.45
2019-06-26T05:21:44.395Z,62.42
2019-06-26T05:24:13.228Z,63.22
2019-06-26T05:26:42.229Z,63.54
2019-06-26T05:29:11.188Z,63.19
2019-06-26T05:31:40.080Z,63.10
2019-06-26T05:34:11.050Z,62.70
2019-06-26T05:36:39.742Z,62.18
2019-06-26T05:39:08.936Z,61.77
2019-06-26T05:41:37.897Z,61.28
2019-06-26T05:44:07.432Z,60.84
2019-06-26T05:46:36.306Z,60.61
2019-06-26T05:49:05.307Z,60.14
2019-06-26T05:51:34.337Z,59.65
2019-06-26T05:54:03.317Z,59.01
2019-06-26T05:56:32.216Z,58.41
2019-06-26T05:59:01.160Z,58.07
2019-06-26T06:01:30.086Z,57.78
2019-06-26T06:03:59.127Z,57.75
2019-06-26T06:06:41.074Z,56.64
2019-06-26T06:08:59.146Z,55.33
2019-06-26T06:11:28.208Z,53.12
2019-06-26T06:13:57.173Z,49.06
2019-06-26T06:16:26.204Z,44.91
2019-06-26T06:18:55.287Z,42.09
2019-06-26T06:21:24.128Z,40.97
2019-06-26T06:23:53.202Z,38.93
2019-06-26T06:26:22.154Z,38.13
2019-06-26T06:28:51.199Z,36.56
2019-06-26T06:31:20.185Z,35.99
2019-06-26T06:33:49.231Z,35.72
2019-06-26T06:36:18.161Z,36.57
2019-06-26T06:38:47.105Z,36.79
2019-06-26T06:41:16.014Z,36.83
2019-06-26T06:43:44.944Z,35.65
2019-06-26T06:46:13.785Z,36.64
2019-06-26T06:48:42.761Z,35.26
2019-06-26T06:51:13.075Z,34.22
2019-06-26T06:53:42.012Z,33.61
2019-06-26T06:56:11.118Z,36.18
2019-06-26T06:58:40.078Z,34.83
2019-06-26T07:01:09.255Z,35.27
2019-06-26T07:03:38.217Z,34.27
2019-06-26T07:06:07.286Z,34.53
2019-06-26T07:08:36.358Z,34.48
2019-06-26T07:11:05.250Z,34.06
2019-06-26T07:13:34.106Z,34.35
2019-06-26T07:16:03.048Z,34.07
2019-06-26T07:18:31.941Z,33.01
2019-06-26T07:21:00.993Z,32.89
2019-06-26T07:23:29.816Z,31.86
2019-06-26T07:25:58.890Z,33.37
2019-06-26T07:28:27.826Z,33.51
2019-06-26T07:30:56.687Z,32.42
2019-06-26T07:33:26.282Z,32.39
2019-06-26T07:35:55.427Z,32.00
2019-06-26T07:38:24.420Z,31.52
2019-06-26T07:40:53.476Z,30.75
2019-06-26T07:43:22.396Z,29.74
2019-06-26T07:45:51.330Z,31.05
2019-06-26T07:48:20.274Z,31.25
2019-06-26T07:50:49.269Z,31.34
2019-06-26T07:53:18.172Z,30.93
2019-06-26T07:55:47.171Z,31.99
2019-06-26T07:58:16.120Z,31.42
2019-06-26T08:00:45.189Z,30.51
2019-06-26T08:03:14.105Z,30.32
2019-06-26T08:05:43.486Z,29.96
2019-06-26T08:08:14.801Z,30.58
2019-06-26T08:10:43.558Z,30.73
2019-06-26T08:13:12.459Z,29.94
2019-06-26T08:15:41.424Z,28.74
2019-06-26T08:18:10.679Z,30.45
2019-06-26T08:20:55.377Z,29.60
2019-06-26T08:23:12.453Z,29.96
2019-06-26T08:25:41.512Z,28.72
2019-06-26T08:28:10.412Z,28.80
2019-06-26T08:30:39.669Z,29.76
2019-06-26T08:33:08.776Z,29.87
2019-06-26T08:35:37.699Z,30.31
2019-06-26T08:38:12.411Z,29.58
2019-06-26T08:40:37.475Z,29.94
2019-06-26T08:43:06.431Z,30.59
2019-06-26T08:45:35.389Z,32.14
2019-06-26T08:48:18.871Z,33.31
2019-06-26T08:50:36.656Z,34.97
2019-06-26T08:53:05.621Z,35.48
2019-06-26T08:55:34.665Z,36.15
2019-06-26T08:58:03.693Z,36.95
2019-06-26T09:00:32.739Z,36.93
2019-06-26T09:03:01.668Z,37.02
2019-06-26T09:05:47.063Z,36.85
2019-06-26T09:08:01.405Z,37.01
2019-06-26T09:10:30.241Z,36.84
2019-06-26T09:12:59.528Z,36.61
2019-06-26T09:15:28.505Z,36.55
2019-06-26T09:17:59.177Z,36.86
2019-06-26T09:20:35.298Z,36.45
2019-06-26T09:23:04.349Z,36.49
2019-06-26T09:25:33.240Z,36.85
2019-06-26T09:28:02.253Z,36.30
2019-06-26T09:30:31.623Z,36.42
2019-06-26T09:33:00.663Z,35.99
2019-06-26T09:35:29.898Z,36.51
2019-06-26T09:37:58.862Z,36.56
2019-06-26T09:40:31.663Z,36.49
2019-06-26T09:42:58.730Z,36.87
2019-06-26T09:45:27.980Z,36.04
2019-06-26T09:47:57.114Z,36.53
2019-06-26T09:50:26.114Z,35.66
2019-06-26T09:52:54.936Z,35.66
2019-06-26T09:55:26.794Z,35.32
2019-06-26T09:57:55.976Z,34.97
2019-06-26T10:00:25.429Z,34.83
2019-06-26T10:02:54.661Z,34.56
2019-06-26T10:05:23.700Z,35.21
2019-06-26T10:07:52.790Z,35.74
2019-06-26T10:10:22.594Z,35.06
2019-06-26T10:12:51.974Z,35.24
2019-06-26T10:15:21.366Z,35.70
2019-06-26T10:17:50.428Z,35.59
2019-06-26T10:20:20.044Z,35.10
2019-06-26T10:22:49.122Z,35.15
2019-06-26T10:25:18.575Z,35.29
2019-06-26T10:27:47.685Z,34.63
2019-06-26T10:30:17.340Z,33.96
2019-06-26T10:32:46.322Z,33.88
2019-06-26T10:35:16.164Z,34.38
2019-06-26T10:37:45.135Z,33.41
2019-06-26T10:40:16.322Z,33.32
2019-06-26T10:42:45.069Z,32.59
2019-06-26T10:45:14.502Z,31.23
2019-06-26T10:47:43.431Z,31.03
2019-06-26T10:50:12.800Z,31.02
2019-06-26T10:52:43.236Z,31.23
2019-06-26T10:55:12.389Z,30.50
2019-06-26T10:57:41.514Z,30.95
2019-06-26T11:00:11.320Z,31.50
2019-06-26T11:02:40.351Z,31.42
2019-06-26T11:05:10.216Z,31.43
2019-06-26T11:07:39.093Z,31.51
2019-06-26T11:10:09.108Z,30.63
2019-06-26T11:12:38.255Z,30.92
2019-06-26T11:15:07.655Z,31.30
2019-06-26T11:17:36.679Z,30.52
2019-06-26T11:20:07.130Z,29.99
2019-06-26T11:22:36.508Z,29.73
2019-06-26T11:25:05.741Z,29.18
2019-06-26T11:27:34.825Z,28.96
2019-06-26T11:30:04.846Z,29.54
2019-06-26T11:32:33.949Z,29.12
2019-06-26T11:35:03.058Z,29.43
2019-06-26T11:37:32.198Z,29.56
2019-06-26T11:40:01.216Z,29.25
2019-06-26T11:42:32.723Z,29.66
2019-06-26T11:45:01.084Z,29.31
2019-06-26T11:47:30.141Z,29.17
2019-06-26T11:50:00.422Z,28.79
2019-06-26T11:52:29.530Z,28.99
2019-06-26T11:55:03.440Z,28.92
2019-06-26T11:57:32.338Z,28.59
2019-06-26T12:00:01.991Z,29.01
2019-06-26T12:02:31.003Z,29.64
2019-06-26T12:04:59.941Z,29.43
2019-06-26T12:07:28.969Z,29.89
2019-06-26T12:09:58.255Z,29.60
2019-06-26T12:12:27.480Z,29.69
2019-06-26T12:14:56.563Z,30.01
2019-06-26T12:17:25.591Z,28.87
2019-06-26T12:19:54.562Z,29.22
2019-06-26T12:22:23.498Z,29.31
2019-06-26T12:24:53.047Z,29.13
2019-06-26T12:27:22.148Z,28.71
2019-06-26T12:29:51.131Z,28.42
2019-06-26T12:32:20.490Z,28.72
2019-06-26T12:34:49.693Z,29.07
2019-06-26T12:37:18.702Z,28.61
2019-06-26T12:39:48.627Z,28.17
2019-06-26T12:42:17.514Z,28.10
2019-06-26T12:44:46.467Z,28.21
2019-06-26T12:47:15.414Z,27.61
2019-06-26T12:49:44.359Z,27.62
2019-06-26T12:52:16.856Z,28.99
2019-06-26T12:54:44.149Z,29.46
2019-06-26T12:57:12.945Z,29.54
2019-06-26T12:59:55.987Z,28.61
2019-06-26T13:02:12.703Z,28.41
2019-06-26T13:04:44.713Z,28.47
2019-06-26T13:07:12.620Z,27.91
2019-06-26T13:09:43.158Z,27.91
2019-06-26T13:12:11.947Z,28.60
2019-06-26T13:14:41.023Z,28.17
2019-06-26T13:17:10.026Z,28.01
2019-06-26T13:19:38.876Z,27.50
2019-06-26T13:22:07.809Z,27.38
2019-06-26T13:24:36.710Z,27.46
2019-06-26T13:27:05.715Z,27.08
2019-06-26T13:29:34.653Z,26.54
2019-06-26T13:32:03.531Z,26.09
2019-06-26T13:34:32.430Z,25.29
2019-06-26T13:37:01.511Z,24.31
2019-06-26T13:39:30.366Z,24.50
2019-06-26T13:41:59.576Z,24.37
2019-06-26T13:44:28.327Z,24.55
2019-06-26T13:46:57.257Z,23.39
2019-06-26T13:49:26.159Z,24.26
2019-06-26T13:51:55.145Z,22.64
2019-06-26T13:54:24.204Z,22.77
2019-06-26T13:56:53.082Z,21.77
2019-06-26T13:59:22.079Z,21.80
2019-06-26T14:01:51.227Z,21.74
2019-06-26T14:04:20.017Z,21.58
2019-06-26T14:06:48.856Z,21.58
2019-06-26T14:09:17.859Z,21.68
2019-06-26T14:11:46.825Z,21.55
2019-06-26T14:14:15.727Z,21.87
2019-06-26T14:16:45.647Z,21.04
2019-06-26T14:19:14.654Z,20.63
2019-06-26T14:21:43.499Z,20.91
2019-06-26T14:24:12.389Z,20.42
2019-06-26T14:26:41.240Z,20.36
2019-06-26T14:29:20.580Z,20.75
2019-06-26T14:31:40.993Z,21.92
2019-06-26T14:34:09.868Z,21.84
2019-06-26T14:36:38.726Z,20.96
2019-06-26T14:39:08.371Z,21.19
2019-06-26T14:41:39.242Z,20.56
2019-06-26T14:44:07.708Z,20.41
2019-06-26T14:46:36.672Z,20.36
2019-06-26T14:49:05.679Z,21.07
2019-06-26T14:51:46.513Z,21.63
2019-06-26T14:54:05.295Z,21.23
2019-06-26T14:56:34.270Z,20.51
2019-06-26T14:59:03.261Z,20.39
2019-06-26T15:01:32.214Z,20.49
2019-06-26T15:04:01.594Z,21.39
2019-06-26T15:06:30.562Z,21.44
2019-06-26T15:08:59.538Z,21.21
2019-06-26T15:11:28.402Z,22.14
2019-06-26T15:13:57.449Z,22.53
2019-06-26T15:16:26.317Z,23.49
2019-06-26T15:18:55.304Z,23.27
2019-06-26T15:21:24.190Z,23.59
2019-06-26T15:23:53.019Z,23.31
2019-06-26T15:26:21.868Z,23.33
2019-06-26T15:28:50.801Z,23.27
2019-06-26T15:31:19.632Z,23.50
2019-06-26T15:33:48.637Z,23.77
2019-06-26T15:36:17.560Z,23.81
2019-06-26T15:38:46.478Z,23.00
2019-06-26T15:41:16.798Z,22.59
2019-06-26T15:43:45.691Z,22.72
2019-06-26T15:46:14.485Z,23.73
2019-06-26T15:48:43.942Z,23.97
2019-06-26T15:51:13.026Z,23.05
2019-06-26T15:53:42.420Z,22.53
2019-06-26T15:56:11.323Z,23.07
2019-06-26T15:58:40.194Z,23.66
2019-06-26T16:01:09.183Z,23.39
2019-06-26T16:03:38.199Z,23.63
2019-06-26T16:06:07.089Z,24.04
2019-06-26T16:08:35.901Z,24.23
2019-06-26T16:11:04.946Z,24.31
2019-06-26T16:13:33.987Z,24.32
2019-06-26T16:16:03.063Z,23.84
2019-06-26T16:18:45.479Z,23.53
2019-06-26T16:21:14.453Z,23.42
2019-06-26T16:23:43.458Z,22.94
2019-06-26T16:26:12.425Z,22.10
2019-06-26T16:28:41.266Z,22.98
2019-06-26T16:33:45.003Z,24.90
2019-06-26T16:36:13.877Z,25.38
2019-06-26T16:38:42.820Z,25.27
2019-06-26T16:41:11.723Z,25.87
2019-06-26T16:43:40.712Z,26.06
2019-06-26T16:46:09.573Z,26.64
2019-06-26T16:48:38.344Z,26.45
2019-06-26T16:51:07.337Z,25.77
2019-06-26T16:53:36.333Z,25.34
2019-06-26T16:56:05.376Z,25.48
2019-06-26T16:58:34.264Z,26.49
2019-06-26T17:01:03.287Z,26.35
2019-06-26T17:03:32.250Z,26.57
2019-06-26T17:06:01.209Z,26.84
2019-06-26T17:08:30.210Z,26.61
2019-06-26T17:10:59.288Z,26.86
2019-06-26T17:13:28.023Z,26.37
2019-06-26T17:15:57.046Z,25.80
2019-06-26T17:18:26.010Z,26.37
2019-06-26T17:20:55.076Z,26.02
2019-06-26T17:23:24.253Z,25.89
2019-06-26T17:25:53.512Z,26.32
2019-06-26T17:28:22.500Z,26.26
2019-06-26T17:30:52.948Z,26.86
2019-06-26T17:33:22.057Z,27.74
2019-06-26T17:35:51.031Z,27.58
2019-06-26T17:38:19.895Z,28.06
2019-06-26T17:40:48.749Z,27.76
2019-06-26T17:43:18.080Z,27.19
2019-06-26T17:45:46.956Z,28.44
2019-06-26T17:48:16.304Z,29.02
2019-06-26T17:50:45.233Z,30.28
2019-06-26T17:53:21.526Z,31.02
2019-06-26T17:55:44.759Z,31.18
2019-06-26T17:58:13.782Z,30.97
2019-06-26T18:00:42.612Z,31.19
2019-06-26T18:03:11.405Z,32.21
2019-06-26T18:05:40.633Z,32.64
2019-06-26T18:08:09.510Z,32.95
2019-06-26T18:10:38.305Z,33.22
2019-06-26T18:13:07.121Z,33.65
2019-06-26T18:15:36.017Z,34.17
2019-06-26T18:18:05.005Z,34.90
2019-06-26T18:20:33.895Z,35.23
2019-06-26T18:23:07.661Z,34.76
2019-06-26T18:25:33.630Z,35.30
2019-06-26T18:28:02.670Z,35.52
2019-06-26T18:30:31.621Z,35.68
2019-06-26T18:33:00.520Z,35.65
2019-06-26T18:35:29.546Z,35.52
2019-06-26T18:37:58.487Z,35.31
2019-06-26T18:40:28.303Z,35.15
2019-06-26T18:42:57.339Z,35.83
2019-06-26T18:45:26.249Z,36.22
2019-06-26T18:47:55.221Z,35.94
2019-06-26T18:50:24.137Z,36.12
2019-06-26T18:52:55.486Z,36.56
2019-06-26T18:55:24.540Z,36.64
2019-06-26T18:57:53.811Z,36.47
2019-06-26T19:00:22.918Z,35.95
2019-06-26T19:02:51.882Z,36.36
2019-06-26T19:05:20.783Z,36.03
2019-06-26T19:07:49.733Z,36.94
2019-06-26T19:10:18.658Z,36.33
2019-06-26T19:12:47.730Z,36.62
2019-06-26T19:15:16.772Z,36.81
2019-06-26T19:17:45.981Z,37.22
2019-06-26T19:20:15.387Z,37.49
2019-06-26T19:22:47.382Z,37.38
2019-06-26T19:25:15.329Z,37.55
2019-06-26T19:27:44.260Z,37.19
2019-06-26T19:30:13.581Z,37.63
2019-06-26T19:32:42.561Z,38.04
2019-06-26T19:35:20.058Z,38.29
2019-06-26T19:37:42.419Z,38.04
2019-06-26T19:40:11.715Z,38.40
2019-06-26T19:42:40.659Z,38.64
2019-06-26T19:45:11.252Z,39.22
2019-06-26T19:47:40.084Z,39.02
2019-06-26T19:50:09.625Z,39.42
2019-06-26T19:52:38.680Z,39.59
2019-06-26T19:55:08.211Z,39.99
2019-06-26T19:57:37.280Z,40.59
2019-06-26T20:00:06.609Z,40.77
2019-06-26T20:02:35.714Z,41.08
2019-06-26T20:05:05.045Z,41.42
2019-06-26T20:07:34.010Z,41.42
2019-06-26T20:10:03.265Z,41.64
2019-06-26T20:12:32.404Z,41.88
2019-06-26T20:15:15.810Z,42.21
2019-06-26T20:17:44.938Z,42.26
2019-06-26T20:20:14.013Z,42.40
2019-06-26T20:22:43.153Z,42.57
2019-06-26T20:25:12.591Z,42.99
2019-06-26T20:27:41.672Z,42.99
2019-06-26T20:30:11.246Z,43.19
2019-06-26T20:32:40.474Z,43.24
2019-06-26T20:35:09.803Z,43.38
2019-06-26T20:37:39.075Z,43.50
2019-06-26T20:40:08.612Z,43.62
2019-06-26T20:42:37.671Z,43.80
2019-06-26T20:45:07.251Z,43.92
2019-06-26T20:47:36.199Z,44.20
2019-06-26T20:50:05.605Z,44.14
2019-06-26T20:52:34.928Z,44.46
2019-06-26T20:55:04.308Z,44.62
2019-06-26T20:57:33.313Z,44.49
2019-06-26T21:00:02.222Z,44.57
2019-06-26T21:02:31.280Z,45.25
2019-06-26T21:05:00.350Z,45.33
2019-06-26T21:07:29.352Z,45.62
2019-06-26T21:09:58.413Z,46.14
2019-06-26T21:12:27.402Z,46.54
2019-06-26T21:14:56.487Z,45.93
2019-06-26T21:17:25.871Z,46.47
2019-06-26T21:19:55.090Z,46.60
2019-06-26T21:22:24.070Z,46.65
2019-06-26T21:24:53.093Z,46.63
2019-06-26T21:27:22.190Z,46.88
2019-06-26T21:29:51.308Z,46.82
2019-06-26T21:32:20.410Z,47.13
2019-06-26T21:34:49.444Z,47.14
2019-06-26T21:37:18.368Z,47.44
2019-06-26T21:39:47.442Z,47.54
2019-06-26T21:42:16.435Z,47.45
2019-06-26T21:44:45.531Z,47.41
2019-06-26T21:47:14.634Z,47.49
2019-06-26T21:49:43.685Z,47.45
2019-06-26T21:52:12.660Z,47.53
2019-06-26T21:54:41.529Z,47.74
2019-06-26T21:57:10.625Z,47.87
2019-06-26T21:59:39.665Z,47.81
2019-06-26T22:02:08.701Z,48.12
2019-06-26T22:04:37.691Z,48.59
2019-06-26T22:07:06.872Z,48.68
2019-06-26T22:09:35.775Z,48.57
2019-06-26T22:12:04.854Z,48.86
2019-06-26T22:14:33.859Z,49.13
2019-06-26T22:17:02.945Z,49.12
2019-06-26T22:19:31.945Z,49.28
2019-06-26T22:22:00.880Z,49.46
2019-06-26T22:24:29.841Z,49.92
2019-06-26T22:26:58.838Z,50.09
2019-06-26T22:29:27.868Z,50.55
2019-06-26T22:31:56.777Z,50.88
2019-06-26T22:34:25.703Z,50.65
2019-06-26T22:36:54.680Z,50.86
2019-06-26T22:39:23.614Z,50.97
2019-06-26T22:41:52.669Z,51.28
2019-06-26T22:44:21.591Z,51.78
2019-06-26T22:46:50.572Z,52.16
2019-06-26T22:49:19.590Z,52.46
2019-06-26T22:51:48.574Z,52.64
2019-06-26T22:54:19.853Z,52.90
2019-06-26T22:56:48.626Z,52.08
2019-06-26T22:59:17.684Z,52.42
2019-06-26T23:01:46.614Z,52.38
2019-06-26T23:04:15.640Z,52.91
2019-06-26T23:06:44.546Z,53.11
2019-06-26T23:09:13.461Z,53.10
2019-06-26T23:11:42.333Z,53.02
2019-06-26T23:14:11.362Z,53.33
2019-06-26T23:16:40.501Z,53.45
2019-06-26T23:19:09.366Z,53.73
2019-06-26T23:21:38.345Z,54.12
2019-06-26T23:24:07.417Z,54.54
2019-06-26T23:26:36.416Z,54.86
2019-06-26T23:29:05.400Z,55.36
2019-06-26T23:31:34.398Z,55.81
2019-06-26T23:34:03.431Z,56.26
2019-06-26T23:36:32.382Z,56.31
2019-06-26T23:39:01.539Z,55.76
2019-06-26T23:41:30.505Z,55.35
2019-06-26T23:43:59.500Z,55.05
2019-06-26T23:46:28.791Z,55.20
2019-06-26T23:48:57.738Z,55.28
2019-06-26T23:51:26.718Z,55.52
2019-06-26T23:53:55.674Z,54.96
2019-06-26T23:56:39.539Z,55.10
2019-06-26T23:58:55.581Z,55.39
